Time;durP1;ratioP1;P1;durP2;ratioP2;P2;SDS_P1;SDS_P2;PMS_P1;PMS_P2;Temp;Humidity;BMP_temperature;BMP_pressure;BME280_temperature;BME280_humidity;BME280_pressure;Samples;Min_cycle;Max_cycle;Signal;HPM_P1;HPM_P2
2021/07/13 00:01:19;;;;;;;8.88;2.60;;;17.20;99.90;;;;;;4973436;28;20465;-86
2021/07/13 00:03:45;;;;;;;8.73;2.60;;;17.20;99.90;;;;;;4973264;28;20034;-86
2021/07/13 00:06:11;;;;;;;6.85;2.50;;;17.20;99.90;;;;;;4971155;28;20058;-85
2021/07/13 00:08:38;;;;;;;9.52;2.80;;;17.20;99.90;;;;;;4972973;28;20029;-85
2021/07/13 00:11:04;;;;;;;7.22;2.20;;;17.20;99.90;;;;;;4973020;28;20399;-86
2021/07/13 00:13:30;;;;;;;14.70;3.50;;;17.20;99.90;;;;;;4972852;28;20007;-86
2021/07/13 00:15:55;;;;;;;11.18;2.45;;;17.20;99.90;;;;;;4955627;28;20507;-86
2021/07/13 00:18:21;;;;;;;7.30;2.47;;;17.20;99.90;;;;;;4972675;28;20019;-86
2021/07/13 00:20:47;;;;;;;8.50;2.90;;;17.20;99.90;;;;;;4972686;28;20089;-85
2021/07/13 00:23:12;;;;;;;7.18;2.55;;;17.30;99.90;;;;;;4972686;28;20027;-85
2021/07/13 00:25:38;;;;;;;14.15;3.40;;;17.30;99.90;;;;;;4955042;28;20537;-86
2021/07/13 00:28:04;;;;;;;6.82;1.98;;;17.30;99.90;;;;;;4955427;28;20460;-86
2021/07/13 00:30:30;;;;;;;11.82;2.90;;;17.30;99.90;;;;;;4972633;28;20015;-86
2021/07/13 00:32:56;;;;;;;14.13;2.72;;;17.40;99.90;;;;;;4955303;28;20057;-85
2021/07/13 00:35:22;;;;;;;13.25;2.75;;;17.40;99.90;;;;;;4971043;28;20484;-86
2021/07/13 00:37:48;;;;;;;11.90;2.38;;;17.40;99.90;;;;;;4972638;28;20090;-85
2021/07/13 00:40:17;;;;;;;8.18;2.28;;;17.40;99.90;;;;;;4972581;28;20077;-86
2021/07/13 00:42:45;;;;;;;11.90;2.42;;;17.40;99.90;;;;;;4972505;28;20031;-85
2021/07/13 00:45:11;;;;;;;16.50;2.38;;;17.30;99.90;;;;;;4972227;28;20030;-85
2021/07/13 00:47:37;;;;;;;6.05;1.88;;;17.40;99.90;;;;;;4972396;28;20026;-86
2021/07/13 00:50:06;;;;;;;7.18;2.10;;;17.40;99.90;;;;;;4971439;28;20019;-85
2021/07/13 00:52:32;;;;;;;13.20;2.75;;;17.30;99.90;;;;;;4972153;28;20035;-86
2021/07/13 00:54:59;;;;;;;10.57;2.10;;;17.40;99.90;;;;;;4972399;28;20430;-86
2021/07/13 00:57:26;;;;;;;10.27;2.83;;;17.40;99.90;;;;;;4972127;28;20415;-85
2021/07/13 00:59:52;;;;;;;9.00;2.10;;;17.40;99.90;;;;;;4972366;28;20045;-86
2021/07/13 01:02:19;;;;;;;9.45;2.47;;;17.40;99.90;;;;;;4972016;28;20031;-86
2021/07/13 01:05:00;;;;;;;13.48;2.90;;;17.40;99.90;;;;;;4972008;28;20025;-85
2021/07/13 01:07:32;;;;;;;11.40;2.15;;;17.40;99.90;;;;;;4971824;28;20158;-86
2021/07/13 01:10:25;;;;;;;10.73;2.15;;;17.50;99.90;;;;;;4972067;28;20400;-86
2021/07/13 01:13:01;;;;;;;13.20;2.45;;;17.50;99.90;;;;;;4957086;28;20523;-86
2021/07/13 01:15:33;;;;;;;11.35;2.35;;;17.50;99.90;;;;;;4974293;28;20023;-85
2021/07/13 01:18:04;;;;;;;18.70;3.00;;;17.50;99.90;;;;;;4972007;28;20023;-86
2021/07/13 01:21:00;;;;;;;11.93;2.20;;;17.50;99.90;;;;;;4954828;28;20097;-86
2021/07/13 01:23:39;;;;;;;14.80;2.72;;;17.50;99.90;;;;;;4973160;28;20098;-86
2021/07/13 01:26:26;;;;;;;10.38;2.30;;;17.40;99.90;;;;;;4955303;28;20130;-86
2021/07/13 01:29:00;;;;;;;10.27;2.50;;;17.40;99.90;;;;;;4976475;28;20026;-87
2021/07/13 01:31:28;;;;;;;10.70;2.67;;;17.40;99.90;;;;;;4979079;28;20027;-86
2021/07/13 01:34:01;;;;;;;15.60;3.55;;;17.40;99.90;;;;;;4973150;28;20058;-86
2021/07/13 01:36:42;;;;;;;12.43;2.42;;;17.40;99.90;;;;;;4972548;28;20590;-85
2021/07/13 01:39:09;;;;;;;8.02;2.20;;;17.40;99.90;;;;;;4980327;28;20033;-86
2021/07/13 01:41:36;;;;;;;9.77;2.28;;;17.30;99.90;;;;;;4979741;28;20070;-86
2021/07/13 01:44:04;;;;;;;10.88;2.38;;;17.30;99.90;;;;;;4979964;28;20031;-85
2021/07/13 01:46:31;;;;;;;13.18;3.85;;;17.30;99.90;;;;;;4960627;28;20513;-86
2021/07/13 01:48:58;;;;;;;14.90;2.83;;;17.30;99.90;;;;;;4980057;28;20078;-86
2021/07/13 01:51:24;;;;;;;11.35;3.38;;;17.30;99.90;;;;;;4962475;28;20023;-86
2021/07/13 01:53:53;;;;;;;9.98;2.67;;;17.30;99.90;;;;;;4976379;28;20106;-86
2021/07/13 01:56:21;;;;;;;10.25;2.30;;;17.30;99.90;;;;;;4954072;28;20377;-86
2021/07/13 01:58:47;;;;;;;10.43;3.13;;;17.30;99.90;;;;;;4971306;28;20491;-85
2021/07/13 02:01:20;;;;;;;13.82;2.90;;;17.30;99.90;;;;;;4974204;28;20018;-86
2021/07/13 02:03:50;;;;;;;11.30;2.85;;;17.20;99.90;;;;;;4975475;28;20031;-86
2021/07/13 02:06:20;;;;;;;11.82;2.70;;;17.20;99.90;;;;;;4974903;28;20043;-85
2021/07/13 02:08:50;;;;;;;17.20;3.00;;;17.20;99.90;;;;;;4975545;28;20019;-85
2021/07/13 02:11:16;;;;;;;9.07;2.30;;;17.20;99.90;;;;;;4975565;28;20027;-85
2021/07/13 02:13:43;;;;;;;9.88;2.28;;;17.30;99.90;;;;;;4968847;28;20034;-86
2021/07/13 02:16:09;;;;;;;16.17;2.97;;;17.20;99.90;;;;;;4950841;28;20526;-86
2021/07/13 02:18:34;;;;;;;19.50;2.67;;;17.20;99.90;;;;;;4975610;28;20018;-86
2021/07/13 02:21:00;;;;;;;10.60;2.53;;;17.30;99.90;;;;;;4975699;28;20027;-86
2021/07/13 02:23:26;;;;;;;8.90;2.33;;;17.30;99.90;;;;;;4975108;28;20094;-86
2021/07/13 02:25:55;;;;;;;11.90;2.35;;;17.30;99.90;;;;;;4975267;28;20043;-85
2021/07/13 02:28:30;;;;;;;13.23;2.53;;;17.20;99.90;;;;;;4975004;28;20023;-86
2021/07/13 02:31:20;;;;;;;12.02;2.95;;;17.20;99.90;;;;;;4974889;28;20078;-85
2021/07/13 02:33:55;;;;;;;9.60;2.10;;;17.20;99.90;;;;;;4952419;28;20082;-86
2021/07/13 02:36:28;;;;;;;13.02;2.70;;;17.20;99.90;;;;;;4974627;28;20073;-85
2021/07/13 02:38:56;;;;;;;10.18;2.53;;;17.20;99.90;;;;;;4975259;28;20096;-85
2021/07/13 02:41:22;;;;;;;12.80;2.85;;;17.20;99.90;;;;;;4957728;28;20029;-86
2021/07/13 02:43:50;;;;;;;10.02;2.40;;;17.20;99.90;;;;;;4974672;28;20502;-86
2021/07/13 02:46:16;;;;;;;8.88;2.70;;;17.20;99.90;;;;;;4957393;28;20519;-86
2021/07/13 02:48:42;;;;;;;10.48;2.50;;;17.30;99.90;;;;;;4957403;28;20039;-86
2021/07/13 02:51:10;;;;;;;13.57;3.40;;;17.30;99.90;;;;;;4974359;28;20467;-86
2021/07/13 02:53:37;;;;;;;17.05;3.13;;;17.20;99.90;;;;;;4974566;28;20078;-86
2021/07/13 02:56:06;;;;;;;11.40;3.50;;;17.10;99.90;;;;;;4974442;28;20081;-85
2021/07/13 02:58:33;;;;;;;11.32;2.97;;;17.10;99.90;;;;;;4974575;28;20503;-85
2021/07/13 03:00:59;;;;;;;14.13;3.40;;;17.00;99.90;;;;;;4974404;28;20031;-86
2021/07/13 03:03:25;;;;;;;15.52;2.90;;;17.00;99.90;;;;;;4974409;28;20571;-85
2021/07/13 03:05:53;;;;;;;11.10;3.28;;;17.00;99.90;;;;;;4973942;28;20117;-86
2021/07/13 03:08:23;;;;;;;12.13;2.55;;;17.00;99.90;;;;;;4956552;28;20029;-86
2021/07/13 03:10:50;;;;;;;12.20;3.20;;;17.00;99.90;;;;;;4956981;28;20090;-85
2021/07/13 03:13:19;;;;;;;19.60;4.53;;;16.90;99.90;;;;;;4973054;28;20011;-86
2021/07/13 03:15:47;;;;;;;13.73;3.75;;;16.90;99.90;;;;;;4973964;28;20046;-86
2021/07/13 03:18:13;;;;;;;11.10;2.83;;;16.90;99.90;;;;;;4973960;28;20114;-87
2021/07/13 03:20:39;;;;;;;15.13;3.13;;;16.90;99.90;;;;;;4974109;28;20105;-86
2021/07/13 03:23:06;;;;;;;14.07;2.80;;;16.90;99.90;;;;;;4973927;28;20061;-85
2021/07/13 03:25:36;;;;;;;13.23;3.13;;;16.90;99.90;;;;;;4973882;28;20456;-86
2021/07/13 03:28:03;;;;;;;12.80;2.78;;;17.00;99.90;;;;;;4940910;28;20097;-86
2021/07/13 03:30:30;;;;;;;9.30;2.78;;;16.90;99.90;;;;;;4973624;28;20015;-86
2021/07/13 03:32:58;;;;;;;16.17;3.33;;;16.90;99.90;;;;;;4974145;28;20027;-86
2021/07/13 03:35:25;;;;;;;14.25;2.90;;;17.00;99.90;;;;;;4973634;28;20503;-86
2021/07/13 03:37:53;;;;;;;17.05;2.90;;;17.00;99.90;;;;;;4972272;28;20030;-85
2021/07/13 03:40:21;;;;;;;13.05;2.92;;;17.00;99.90;;;;;;4956125;28;20377;-86
2021/07/13 03:42:49;;;;;;;14.80;2.67;;;17.00;99.90;;;;;;4956082;28;20046;-85
2021/07/13 03:45:16;;;;;;;14.07;3.25;;;17.00;99.90;;;;;;4973424;28;20431;-86
2021/07/13 03:47:49;;;;;;;11.00;2.83;;;17.00;99.90;;;;;;4956214;28;20098;-85
2021/07/13 03:50:16;;;;;;;9.80;3.15;;;17.00;99.90;;;;;;4973605;28;20031;-85
2021/07/13 03:52:42;;;;;;;17.70;2.75;;;17.10;99.90;;;;;;4956006;28;20458;-86
2021/07/13 03:55:09;;;;;;;13.98;2.80;;;17.00;99.90;;;;;;4973408;28;20027;-86
2021/07/13 03:57:38;;;;;;;13.55;3.45;;;17.10;99.90;;;;;;4955730;28;20072;-85
2021/07/13 04:00:08;;;;;;;14.00;3.17;;;17.10;99.90;;;;;;4973163;28;20088;-85
2021/07/13 04:02:34;;;;;;;10.93;2.85;;;17.10;99.90;;;;;;4972710;28;20026;-86
2021/07/13 04:05:00;;;;;;;11.80;3.10;;;17.20;99.90;;;;;;4973023;28;20038;-86
2021/07/13 04:07:26;;;;;;;12.85;3.30;;;17.10;99.90;;;;;;4975936;28;20039;-86
2021/07/13 04:09:51;;;;;;;8.85;2.97;;;17.10;99.90;;;;;;4971004;28;20034;-85
2021/07/13 04:12:17;;;;;;;10.48;2.70;;;17.10;99.90;;;;;;4972837;28;20518;-85
2021/07/13 04:14:42;;;;;;;14.95;3.10;;;17.10;99.90;;;;;;4972926;28;20022;-86
2021/07/13 04:17:08;;;;;;;15.15;3.88;;;17.10;99.90;;;;;;4971490;28;20135;-85
2021/07/13 04:19:34;;;;;;;17.73;3.08;;;17.10;99.90;;;;;;4972931;28;20019;-85
2021/07/13 04:22:00;;;;;;;12.98;3.13;;;17.10;99.90;;;;;;4972482;28;20030;-85
2021/07/13 04:24:25;;;;;;;14.00;3.58;;;17.10;99.90;;;;;;4971600;28;20411;-85
2021/07/13 04:26:51;;;;;;;14.77;3.70;;;17.20;99.90;;;;;;4971254;28;20047;-85
2021/07/13 04:29:16;;;;;;;11.82;3.65;;;17.20;99.90;;;;;;4972873;28;20105;-86
2021/07/13 04:31:42;;;;;;;16.73;3.25;;;17.30;99.90;;;;;;4972682;28;20118;-86
2021/07/13 04:34:09;;;;;;;11.63;3.10;;;17.30;99.90;;;;;;4972886;28;20128;-85
2021/07/13 04:36:37;;;;;;;14.27;2.92;;;17.30;99.90;;;;;;4977758;28;20066;-86
2021/07/13 04:39:06;;;;;;;16.30;3.38;;;17.40;99.90;;;;;;4971857;28;20484;-86
2021/07/13 04:41:32;;;;;;;10.52;2.78;;;17.40;99.90;;;;;;4960944;28;20070;-85
2021/07/13 04:43:58;;;;;;;11.13;2.90;;;17.40;99.90;;;;;;4970379;28;20026;-85
2021/07/13 04:46:24;;;;;;;13.20;4.00;;;17.40;99.90;;;;;;4972359;28;20519;-85
2021/07/13 04:48:49;;;;;;;13.57;2.88;;;17.30;99.90;;;;;;4972323;28;20046;-86
2021/07/13 04:51:15;;;;;;;15.23;3.20;;;17.30;99.90;;;;;;4972842;28;20033;-86
2021/07/13 04:53:42;;;;;;;10.65;2.97;;;17.30;99.90;;;;;;4958718;28;20511;-86
2021/07/13 04:56:08;;;;;;;12.20;2.65;;;17.30;99.90;;;;;;4959036;28;20023;-85
2021/07/13 04:58:34;;;;;;;19.40;3.42;;;17.30;99.90;;;;;;4972430;28;20054;-85
2021/07/13 05:01:00;;;;;;;16.95;2.83;;;17.30;99.90;;;;;;4972126;28;20480;-86
2021/07/13 05:03:26;;;;;;;11.88;2.78;;;17.30;99.90;;;;;;4972269;28;20031;-85
2021/07/13 05:05:52;;;;;;;16.15;3.20;;;17.40;99.90;;;;;;4971840;28;20134;-85
2021/07/13 05:08:18;;;;;;;11.82;2.53;;;17.50;99.90;;;;;;4972606;28;20460;-86
2021/07/13 05:10:44;;;;;;;10.00;2.25;;;17.50;99.90;;;;;;4972203;28;20110;-85
2021/07/13 05:13:11;;;;;;;8.35;2.03;;;17.50;99.90;;;;;;4971933;28;20251;-85
2021/07/13 05:15:40;;;;;;;8.63;2.38;;;17.50;99.90;;;;;;4971613;28;20042;-86
2021/07/13 05:18:11;;;;;;;9.25;2.67;;;17.50;99.90;;;;;;4979808;28;20563;-85
2021/07/13 05:20:43;;;;;;;10.60;2.40;;;17.50;99.90;;;;;;4954782;28;20108;-86
2021/07/13 05:23:09;;;;;;;18.83;2.75;;;17.60;99.90;;;;;;4971794;28;20042;-86
2021/07/13 05:25:37;;;;;;;9.90;2.60;;;17.60;99.90;;;;;;4971755;28;20015;-85
2021/07/13 05:28:10;;;;;;;14.10;3.00;;;17.70;99.90;;;;;;4955457;28;20041;-90
2021/07/13 05:30:43;;;;;;;13.45;2.33;;;17.70;99.90;;;;;;4973747;28;20030;-89
2021/07/13 05:33:11;;;;;;;7.28;2.28;;;17.80;99.90;;;;;;4964453;28;20586;-89
2021/07/13 05:35:37;;;;;;;13.38;2.70;;;17.90;99.90;;;;;;4975917;28;20516;-90
2021/07/13 05:38:06;;;;;;;10.13;2.47;;;18.00;99.90;;;;;;4973716;28;20053;-89
2021/07/13 05:40:43;;;;;;;12.73;2.78;;;18.00;99.90;;;;;;4972419;28;20163;-90
2021/07/13 05:43:08;;;;;;;14.07;2.10;;;18.10;99.90;;;;;;4969682;28;20030;-90
2021/07/13 05:45:34;;;;;;;7.90;2.40;;;18.10;99.90;;;;;;4953618;28;20030;-88
2021/07/13 05:48:00;;;;;;;8.10;2.65;;;18.00;99.90;;;;;;4971061;28;20046;-87
2021/07/13 05:50:25;;;;;;;11.07;2.60;;;18.00;99.90;;;;;;4970607;28;20015;-87
2021/07/13 05:52:52;;;;;;;10.20;2.80;;;17.80;99.90;;;;;;4970912;28;20067;-87
2021/07/13 05:55:18;;;;;;;9.45;2.25;;;17.80;99.90;;;;;;4972163;28;20006;-89
2021/07/13 05:57:44;;;;;;;10.10;2.55;;;17.70;99.90;;;;;;4956784;28;20026;-89
2021/07/13 06:00:16;;;;;;;12.73;3.00;;;17.70;99.90;;;;;;4975079;28;20273;-88
2021/07/13 06:03:02;;;;;;;10.52;3.00;;;17.70;99.90;;;;;;4962065;28;20050;-89
2021/07/13 06:05:40;;;;;;;11.90;2.75;;;17.60;99.90;;;;;;4964208;28;20027;-89
2021/07/13 06:08:10;;;;;;;7.38;2.58;;;17.70;99.90;;;;;;4968816;28;20023;-88
2021/07/13 06:10:35;;;;;;;10.05;2.60;;;17.70;99.90;;;;;;4973122;28;20106;-89
2021/07/13 06:13:02;;;;;;;11.55;2.55;;;17.70;99.90;;;;;;4953745;28;20089;-89
2021/07/13 06:15:28;;;;;;;12.30;2.08;;;17.70;99.90;;;;;;4961146;28;20019;-89
2021/07/13 06:17:53;;;;;;;13.85;2.50;;;17.80;99.90;;;;;;4971584;28;20027;-89
2021/07/13 06:20:19;;;;;;;12.13;2.70;;;17.80;99.90;;;;;;4956206;28;20059;-88
2021/07/13 06:22:45;;;;;;;7.55;2.25;;;17.80;99.90;;;;;;4972140;28;20436;-88
2021/07/13 06:25:11;;;;;;;12.80;2.67;;;17.80;99.90;;;;;;4973001;28;20019;-91
2021/07/13 06:27:37;;;;;;;11.18;2.55;;;17.80;99.90;;;;;;4954235;28;20283;-88
2021/07/13 06:30:07;;;;;;;11.38;2.38;;;17.80;99.90;;;;;;4973191;28;20275;-89
2021/07/13 06:32:34;;;;;;;8.90;2.28;;;17.90;99.90;;;;;;4973035;28;20007;-88
2021/07/13 06:35:00;;;;;;;6.63;2.33;;;18.00;99.90;;;;;;4971529;28;20026;-89
2021/07/13 06:37:26;;;;;;;12.98;2.45;;;18.00;99.90;;;;;;4972899;28;20511;-89
2021/07/13 06:39:53;;;;;;;7.68;2.13;;;18.10;99.90;;;;;;4978683;28;20401;-89
2021/07/13 06:42:23;;;;;;;7.68;2.08;;;18.20;99.90;;;;;;4965519;28;20588;-87
2021/07/13 06:44:48;;;;;;;10.75;2.35;;;18.20;99.90;;;;;;4963826;28;20268;-87
2021/07/13 06:47:16;;;;;;;10.60;2.40;;;18.30;99.90;;;;;;4954834;28;20506;-88
2021/07/13 06:49:41;;;;;;;12.32;2.50;;;18.30;99.90;;;;;;4967328;28;20039;-89
2021/07/13 06:52:07;;;;;;;10.60;2.25;;;18.30;99.90;;;;;;4970261;28;20042;-88
2021/07/13 06:54:33;;;;;;;7.60;2.17;;;18.20;99.90;;;;;;4965700;28;20408;-78
2021/07/13 06:56:59;;;;;;;6.80;2.10;;;18.10;99.90;;;;;;4968061;28;20022;-79
2021/07/13 06:59:25;;;;;;;9.43;2.28;;;18.10;99.90;;;;;;4973255;28;20022;-78
2021/07/13 07:01:51;;;;;;;10.98;2.15;;;18.10;99.90;;;;;;4973322;28;20035;-78
2021/07/13 07:04:16;;;;;;;11.68;2.53;;;18.00;99.90;;;;;;4972970;28;20029;-77
2021/07/13 07:06:42;;;;;;;8.63;2.22;;;18.00;99.90;;;;;;4971901;28;20573;-78
2021/07/13 07:09:08;;;;;;;8.25;1.80;;;18.00;99.90;;;;;;4973226;28;20029;-79
2021/07/13 07:11:33;;;;;;;7.20;1.70;;;18.10;99.90;;;;;;4955859;28;20507;-78
2021/07/13 07:13:59;;;;;;;8.45;1.90;;;18.10;99.90;;;;;;4973251;28;20023;-78
2021/07/13 07:16:25;;;;;;;10.10;2.45;;;18.20;99.90;;;;;;4973025;28;20062;-78
2021/07/13 07:18:50;;;;;;;8.02;1.85;;;18.20;99.90;;;;;;4973328;28;20483;-79
2021/07/13 07:21:17;;;;;;;6.70;1.80;;;18.10;99.90;;;;;;4972690;28;20050;-79
2021/07/13 07:23:43;;;;;;;7.15;1.60;;;18.10;99.90;;;;;;4972906;28;20025;-77
2021/07/13 07:26:08;;;;;;;8.10;2.17;;;18.10;99.90;;;;;;4973093;28;20406;-77
2021/07/13 07:28:34;;;;;;;3.95;1.80;;;18.00;99.90;;;;;;4973032;28;20384;-77
2021/07/13 07:31:00;;;;;;;7.97;1.88;;;18.00;99.90;;;;;;4973130;28;20031;-77
2021/07/13 07:33:25;;;;;;;7.82;1.95;;;18.10;99.90;;;;;;4972815;28;20030;-77
2021/07/13 07:35:51;;;;;;;7.72;2.42;;;18.10;99.90;;;;;;4972821;28;20035;-78
2021/07/13 07:38:17;;;;;;;7.65;2.55;;;18.10;99.90;;;;;;4972879;28;20034;-78
2021/07/13 07:40:44;;;;;;;9.63;2.63;;;17.80;99.90;;;;;;4972801;28;20276;-75
2021/07/13 07:43:10;;;;;;;10.00;3.58;;;17.50;99.90;;;;;;4971875;28;20082;-75
2021/07/13 07:45:36;;;;;;;11.07;3.40;;;17.20;99.90;;;;;;4972540;28;20019;-76
2021/07/13 07:48:02;;;;;;;10.00;3.00;;;17.00;99.90;;;;;;4972767;28;20029;-76
2021/07/13 07:50:28;;;;;;;8.57;3.10;;;16.80;99.90;;;;;;4972522;28;20066;-76
2021/07/13 07:52:54;;;;;;;4.85;2.70;;;16.80;99.90;;;;;;4972153;28;20054;-77
2021/07/13 07:55:22;;;;;;;8.00;3.08;;;16.80;99.90;;;;;;4972153;28;20511;-77
2021/07/13 07:57:48;;;;;;;5.68;3.13;;;16.90;99.90;;;;;;4972280;28;20011;-76
2021/07/13 08:00:14;;;;;;;7.43;3.13;;;16.80;99.90;;;;;;4972300;28;20398;-77
2021/07/13 08:02:40;;;;;;;8.30;3.10;;;16.90;99.90;;;;;;4971725;28;20022;-77
2021/07/13 08:05:07;;;;;;;6.65;3.80;;;16.90;99.90;;;;;;4972077;28;20062;-78
2021/07/13 08:07:34;;;;;;;7.07;3.45;;;16.90;99.90;;;;;;4971880;28;20117;-75
2021/07/13 08:10:00;;;;;;;10.60;3.83;;;17.00;99.90;;;;;;4954745;28;20394;-75
2021/07/13 08:12:26;;;;;;;14.02;4.03;;;17.10;99.90;;;;;;4971557;28;20085;-75
2021/07/13 08:14:52;;;;;;;12.27;4.47;;;17.10;99.90;;;;;;4971561;28;20027;-75
2021/07/13 08:17:19;;;;;;;7.78;3.75;;;17.10;99.90;;;;;;4971397;28;20047;-75
2021/07/13 08:19:45;;;;;;;10.02;3.90;;;17.20;99.90;;;;;;4971709;28;20082;-81
2021/07/13 08:22:11;;;;;;;14.48;3.20;;;17.30;99.90;;;;;;4971719;28;20216;-80
2021/07/13 08:24:38;;;;;;;11.70;3.67;;;17.40;99.90;;;;;;4971745;28;20172;-76
2021/07/13 08:27:05;;;;;;;13.05;3.60;;;17.50;99.90;;;;;;4969791;28;20118;-76
2021/07/13 08:29:31;;;;;;;12.57;4.20;;;17.50;99.90;;;;;;4971848;28;20074;-76
2021/07/13 08:31:57;;;;;;;9.02;4.10;;;17.60;99.90;;;;;;4954487;28;20066;-76
2021/07/13 08:34:24;;;;;;;10.00;3.17;;;17.70;99.90;;;;;;4971653;28;20023;-76
2021/07/13 08:36:50;;;;;;;11.30;3.80;;;17.90;99.90;;;;;;4971611;28;20027;-76
2021/07/13 08:39:16;;;;;;;12.50;3.92;;;17.90;99.90;;;;;;4972176;28;20030;-76
2021/07/13 08:41:43;;;;;;;11.57;3.58;;;17.90;99.90;;;;;;4972359;28;20084;-77
2021/07/13 08:44:08;;;;;;;14.70;5.45;;;17.80;99.90;;;;;;4971753;28;20562;-77
2021/07/13 08:46:38;;;;;;;11.20;4.63;;;17.80;99.90;;;;;;4954160;28;20082;-76
2021/07/13 08:49:06;;;;;;;10.18;4.30;;;17.80;99.90;;;;;;4971359;28;20015;-77
2021/07/13 08:51:32;;;;;;;11.18;3.72;;;17.80;99.90;;;;;;4971876;28;20023;-79
2021/07/13 08:53:59;;;;;;;13.35;4.50;;;17.90;99.90;;;;;;4971543;28;20027;-78
2021/07/13 08:56:24;;;;;;;12.48;4.35;;;18.00;99.90;;;;;;4971801;28;20034;-79
2021/07/13 08:58:50;;;;;;;16.50;3.90;;;18.10;99.90;;;;;;4971550;28;20019;-78
2021/07/13 09:01:16;;;;;;;11.25;4.35;;;18.10;99.90;;;;;;4971662;28;20678;-79
2021/07/13 09:04:07;;;;;;;9.95;4.28;;;18.10;99.90;;;;;;4971413;28;20023;-79
2021/07/13 09:07:11;;;;;;;11.93;4.72;;;18.00;99.90;;;;;;4971282;28;20031;-79
2021/07/13 09:09:39;;;;;;;12.77;4.65;;;18.00;99.90;;;;;;4910550;29;20123;-78
2021/07/13 09:12:14;;;;;;;10.63;5.40;;;18.00;99.90;;;;;;4911046;29;20063;-79
2021/07/13 09:14:59;;;;;;;12.07;5.13;;;18.00;99.90;;;;;;4934242;28;20126;-78
2021/07/13 09:17:25;;;;;;;12.65;4.45;;;18.10;99.90;;;;;;4971395;28;20047;-78
2021/07/13 09:20:22;;;;;;;9.90;4.43;;;18.10;99.90;;;;;;4970165;28;20034;-78
2021/07/13 09:23:06;;;;;;;8.23;3.95;;;18.10;99.90;;;;;;4969371;28;20054;-78
2021/07/13 09:25:40;;;;;;;10.25;4.47;;;18.20;99.90;;;;;;4971028;28;20025;-78
2021/07/13 09:28:19;;;;;;;;;;;18.30;99.90;;;;;;4971060;28;20479;-78
2021/07/13 09:30:56;;;;;;;8.48;4.63;;;18.30;99.90;;;;;;4961587;28;19988;-78
2021/07/13 09:33:25;;;;;;;11.82;4.55;;;18.40;99.90;;;;;;4970674;28;20497;-79
2021/07/13 09:36:05;;;;;;;9.55;4.43;;;18.50;99.90;;;;;;4964924;28;20414;-78
2021/07/13 09:38:34;;;;;;;9.40;4.35;;;18.50;99.90;;;;;;4970019;28;20087;-81
2021/07/13 09:41:04;;;;;;;10.32;5.00;;;18.60;99.90;;;;;;4970710;28;20211;-78
2021/07/13 09:43:41;;;;;;;13.13;4.25;;;18.70;99.90;;;;;;4953273;28;20035;-79
2021/07/13 09:46:33;;;;;;;10.60;4.43;;;18.70;99.90;;;;;;4970532;28;20031;-79
2021/07/13 09:49:14;;;;;;;7.38;3.70;;;18.50;99.90;;;;;;4968428;28;20031;-79
2021/07/13 09:51:45;;;;;;;10.00;4.22;;;18.40;99.90;;;;;;4970679;28;20507;-79
2021/07/13 09:54:35;;;;;;;7.15;3.78;;;18.20;99.90;;;;;;4969652;28;20476;-79
2021/07/13 09:57:07;;;;;;;9.85;3.97;;;18.20;99.90;;;;;;4970101;28;20031;-80
2021/07/13 09:59:33;;;;;;;7.93;4.50;;;18.20;99.90;;;;;;4964135;28;20077;-78
2021/07/13 10:02:03;;;;;;;7.80;4.03;;;18.30;99.90;;;;;;4969084;28;20034;-79
2021/07/13 10:04:29;;;;;;;7.22;4.53;;;18.30;99.90;;;;;;4970488;28;20361;-78
2021/07/13 10:06:58;;;;;;;11.95;4.28;;;18.30;99.90;;;;;;4970251;28;20113;-79
2021/07/13 10:09:29;;;;;;;9.00;3.75;;;18.40;99.90;;;;;;4970414;28;20018;-79
2021/07/13 10:11:55;;;;;;;7.25;3.75;;;18.60;99.90;;;;;;4970444;28;20031;-79
2021/07/13 10:14:22;;;;;;;10.00;4.05;;;18.80;99.90;;;;;;4970092;28;20027;-79
2021/07/13 10:16:48;;;;;;;8.25;3.70;;;19.00;99.90;;;;;;4970378;28;20043;-80
2021/07/13 10:19:13;;;;;;;5.13;3.40;;;19.30;99.90;;;;;;4970098;28;20093;-79
2021/07/13 10:21:40;;;;;;;5.15;3.10;;;19.70;99.90;;;;;;4972279;28;20483;-79
2021/07/13 10:24:06;;;;;;;6.75;3.45;;;20.10;99.90;;;;;;4974344;28;20527;-79
2021/07/13 10:26:44;;;;;;;6.85;3.22;;;20.20;99.90;;;;;;4974418;28;20118;-79
2021/07/13 10:29:31;;;;;;;5.55;3.72;;;20.20;99.90;;;;;;4962134;28;20515;-79
2021/07/13 10:32:04;;;;;;;4.68;3.30;;;19.90;99.90;;;;;;4974277;28;20032;-79
2021/07/13 10:34:50;;;;;;;8.90;3.40;;;19.80;99.90;;;;;;4967647;28;20022;-78
2021/07/13 10:37:27;;;;;;;7.68;3.53;;;19.60;99.90;;;;;;4971735;28;20116;-79
2021/07/13 10:39:58;;;;;;;8.35;3.78;;;19.30;99.90;;;;;;4974705;28;20500;-78
2021/07/13 10:42:48;;;;;;;8.45;3.35;;;19.10;99.90;;;;;;4974226;28;20031;-78
2021/07/13 10:45:18;;;;;;;8.35;3.95;;;19.00;99.90;;;;;;4974886;28;20026;-79
2021/07/13 10:48:06;;;;;;;8.02;3.28;;;18.90;99.90;;;;;;4975940;28;20541;-79
2021/07/13 10:50:35;;;;;;;10.55;3.80;;;18.80;99.90;;;;;;4962096;28;20015;-79
2021/07/13 10:53:24;;;;;;;6.32;3.20;;;18.80;99.90;;;;;;4974782;28;20061;-79
2021/07/13 10:56:00;;;;;;;8.38;3.60;;;19.00;99.90;;;;;;4964505;28;20023;-78
2021/07/13 10:58:29;;;;;;;8.18;3.40;;;18.90;99.90;;;;;;4975103;28;20031;-79
2021/07/13 11:00:56;;;;;;;7.43;3.40;;;18.70;99.90;;;;;;4973983;28;20050;-79
2021/07/13 11:03:34;;;;;;;8.88;3.20;;;18.70;99.90;;;;;;4973383;28;20485;-79
2021/07/13 11:06:09;;;;;;;7.38;3.28;;;18.60;99.90;;;;;;4973071;28;20097;-79
2021/07/13 11:08:52;;;;;;;8.68;3.50;;;18.70;99.90;;;;;;4972830;28;20022;-79
2021/07/13 11:11:26;;;;;;;8.95;3.05;;;18.80;99.90;;;;;;4972631;28;20057;-78
2021/07/13 11:13:53;;;;;;;;;;;19.00;99.90;;;;;;4973295;28;20034;-79
2021/07/13 11:16:34;;;;;;;6.45;2.90;;;19.20;99.90;;;;;;4973229;28;19925;-78
2021/07/13 11:19:03;;;;;;;7.72;3.10;;;19.20;99.90;;;;;;4972412;28;20091;-79
2021/07/13 11:21:30;;;;;;;7.68;3.20;;;19.20;99.90;;;;;;4981854;28;20032;-78
2021/07/13 11:24:08;;;;;;;8.63;3.08;;;19.30;99.90;;;;;;4967454;28;20030;-79
2021/07/13 11:26:37;;;;;;;7.32;2.70;;;19.60;99.90;;;;;;4972894;28;20031;-79
2021/07/13 11:29:26;;;;;;;8.38;2.95;;;20.00;99.90;;;;;;4972986;28;20023;-79
2021/07/13 11:31:57;;;;;;;7.70;2.95;;;20.10;99.90;;;;;;4972684;28;20427;-79
2021/07/13 11:34:23;;;;;;;7.07;2.65;;;20.00;99.90;;;;;;4972206;28;20483;-79
2021/07/13 11:36:55;;;;;;;6.20;3.05;;;19.80;99.90;;;;;;4972246;28;20026;-78
2021/07/13 11:39:22;;;;;;;9.50;2.92;;;19.70;99.90;;;;;;4972884;28;20029;-78
2021/07/13 11:41:49;;;;;;;5.80;2.30;;;19.80;99.90;;;;;;4972706;28;20160;-78
2021/07/13 11:44:15;;;;;;;4.13;2.28;;;20.30;99.90;;;;;;4972525;28;20026;-78
2021/07/13 11:46:42;;;;;;;10.20;3.03;;;20.60;99.90;;;;;;4972673;28;20097;-79
2021/07/13 11:49:13;;;;;;;5.88;2.60;;;20.70;99.90;;;;;;4972678;28;20054;-78
2021/07/13 11:51:49;;;;;;;8.00;2.60;;;20.80;99.90;;;;;;4972403;28;20448;-79
2021/07/13 11:54:16;;;;;;;7.82;2.60;;;20.80;99.90;;;;;;4972655;28;20038;-79
2021/07/13 11:56:46;;;;;;;9.52;2.88;;;20.70;99.90;;;;;;4972610;28;20030;-78
2021/07/13 11:59:17;;;;;;;8.35;2.58;;;20.80;99.90;;;;;;4972814;28;20018;-78
2021/07/13 12:01:52;;;;;;;8.98;3.10;;;20.60;99.90;;;;;;4972274;28;20034;-78
2021/07/13 12:04:18;;;;;;;7.22;3.05;;;20.50;99.90;;;;;;4972787;28;20031;-78
2021/07/13 12:06:44;;;;;;;8.13;2.50;;;20.50;99.90;;;;;;4972201;28;20037;-78
2021/07/13 12:09:14;;;;;;;9.85;3.63;;;20.40;99.90;;;;;;4972382;28;20027;-78
2021/07/13 12:11:46;;;;;;;9.23;2.90;;;20.30;99.90;;;;;;4972099;28;20435;-78
2021/07/13 12:14:17;;;;;;;9.23;3.25;;;20.50;99.90;;;;;;4972308;28;20084;-79
2021/07/13 12:16:44;;;;;;;14.80;3.78;;;20.70;99.90;;;;;;4971781;28;20047;-78
2021/07/13 12:19:15;;;;;;;10.93;2.90;;;20.80;99.90;;;;;;4971940;28;20023;-79
2021/07/13 12:21:46;;;;;;;12.77;3.08;;;20.80;99.90;;;;;;4971328;28;20110;-79
2021/07/13 12:24:17;;;;;;;7.15;2.83;;;20.70;99.90;;;;;;4971778;28;20038;-79
2021/07/13 12:26:49;;;;;;;10.82;2.75;;;20.80;99.90;;;;;;4971745;28;20041;-78
2021/07/13 12:29:20;;;;;;;9.50;2.97;;;20.90;99.90;;;;;;4971690;28;20027;-78
2021/07/13 12:31:49;;;;;;;5.72;2.42;;;21.20;99.90;;;;;;4971252;28;20039;-78
2021/07/13 12:34:26;;;;;;;11.77;3.13;;;21.30;99.90;;;;;;4971868;28;20022;-78
2021/07/13 12:37:15;;;;;;;9.60;3.05;;;21.40;99.90;;;;;;4954084;28;20031;-78
2021/07/13 12:39:50;;;;;;;8.25;3.13;;;21.30;99.90;;;;;;4956102;28;20043;-77
2021/07/13 12:42:31;;;;;;;8.48;3.50;;;21.20;99.90;;;;;;4970866;28;20027;-77
2021/07/13 12:44:58;;;;;;;8.13;3.08;;;21.00;99.90;;;;;;4970947;28;20110;-79
2021/07/13 12:47:29;;;;;;;11.88;3.10;;;20.70;99.90;;;;;;4971871;28;20038;-78
2021/07/13 12:50:22;;;;;;;8.63;2.78;;;20.60;99.90;;;;;;4961965;28;20030;-78
2021/07/13 12:53:09;;;;;;;9.70;3.25;;;20.50;99.90;;;;;;4971169;28;20054;-78